ESNSESPA

Guest
Details From ESNS - Skelleftea
To ESPA - Lulea Kallax
Flight Number -
Tags generated
Created
Modified
Stats Distance 62 nm / 114 km
Max Altitude 5,800 ft / 1,768 m
Waypoints 3
Social Downloads 0
Likes 0
Share VATSIM

Download

Looking for another format? Having issues loading an existing format? Contact us
Advertisement - Login to hide

Notes

Basic altitude profile: - Ascent Rate: 2500ft/min - Ascent Speed: 250kts - Cruise Altitude: 35000ft - Cruise Speed: 420kts - Descent Rate: 1500ft/min - Descent Speed: 250kts Options: - Use NATs: yes - Use PACOTS: yes - Use low airways: yes - Use high airways: yes

Route

ESNS ELBOG ESPA

ID Type Via Altitude Latitude Longitude Leg Dist Tot Dist Heading (true) Name
O ESNS APT - 0 ft / 0 m 64.62477˚ 21.07687˚ - 0 nm - Skelleftea
ELBOG FIX - 5,800 ft / 1,768 m 65.16267˚ 21.51483˚ 34 nm 34 nm 19° / 19° -
O ESPA APT - 0 ft / 0 m 65.54376˚ 22.12198˚ 27 nm 61 nm 33° / 34° Lulea Kallax

Altitude Profile

Advertisement - Login to hide

ESNS

Details ICAO ESNS (SFT)
Name Skelleftea
Region Sweden
Timezone Europe/Stockholm (UTC+1.0)
Stats Elevation 155 ft / 47 m (AMSL)
Location 64.624772° 21.076867°
Runways 1
Magnetic Variation 8.558° E

METAR

ESNS 141820Z 16008KT 9999 BKN016 00/M01 Q0990

Decode

TAF

Not found

Departure Runways

ID Width Length Bearing (true) Bearing (mag) Surface Threshold Offset Overrun Length
10 148 ft / 45 m 6,872 ft / 2,095 m 106.26° 97.70° Asphalt 0 ft / 0 m 0 ft / 0 m
28 148 ft / 45 m 6,872 ft / 2,095 m 286.30° 277.74° Asphalt 0 ft / 0 m 0 ft / 0 m

ESPA

Details ICAO ESPA (LLA)
Name Lulea Kallax
Region Sweden
Timezone Europe/Stockholm (UTC+1.0)
Stats Elevation 65 ft / 20 m (AMSL)
Location 65.543757° 22.121979°
Runways 1
Magnetic Variation 9.325° E

METAR

ESPA 141820Z VRB01KT 9999 -SN BKN008 BKN014 M08/M09 Q0991

Decode

TAF

Not found

Destination Runways

ID Width Length Bearing (true) Bearing (mag) Surface Threshold Offset Overrun Length
14 148 ft / 45 m 10,957 ft / 3,340 m 137.32° 127.99° Asphalt 0 ft / 0 m 0 ft / 0 m
32 148 ft / 45 m 10,957 ft / 3,340 m 317.36° 308.03° Asphalt 0 ft / 0 m 0 ft / 0 m

Approach Navaids

Runway Type Ident Frequency Range Bearing (true) Bearing (mag) Slope Elevation
14 Localiser PA 110.30 MHz 18 nm / 33 km 137.38° 128.05° - 65 ft / 20 m (AMSL)
14 Glidescope PA 110.30 MHz 10 nm / 19 km 137.34° 128.01° 2.86° 65 ft / 20 m (AMSL)
32 Localiser SPA 109.90 MHz 18 nm / 33 km 317.33° 308.00° - 65 ft / 20 m (AMSL)
32 Glidescope SPA 109.90 MHz 10 nm / 19 km 317.34° 308.01° 2.86° 65 ft / 20 m (AMSL)
32 DME SPA 109.90 MHz 18 nm / 33 km - - - 45 ft / 14 m (AMSL)

Popular Alternatives